Date,TemperatureHighF,TemperatureAvgF,TemperatureLowF,DewpointHighF,DewpointAvgF,DewpointLowF,HumidityHigh,HumidityAvg,HumidityLow,PressureMaxIn,PressureMinIn,WindSpeedMaxMPH,WindSpeedAvgMPH,GustSpeedMaxMPH,PrecipitationSumIn
2013-3-1,43.0,39.0,35.1,15.9,12.9,9.1,42,34,29,29.90,29.81,8,1,8,0.00
2013-3-2,45.3,37.1,31.8,13.9,8.7,3.4,43,31,22,29.93,29.78,12,1,12,0.00
2013-3-3,43.7,33.3,27.3,7.1,3.3,-1.0,35,28,20,29.99,29.78,11,2,11,0.00
2013-3-4,50.4,36.3,24.4,3.6,-0.1,-4.7,36,22,14,30.11,29.90,9,1,9,0.00
2013-3-5,52.9,41.6,34.5,36.5,18.4,-4.7,85,44,16,30.05,29.61,7,1,7,0.67
2013-3-6,47.3,38.1,33.4,30.9,19.7,12.3,82,51,28,30.08,29.58,13,2,13,0.08
2013-3-7,48.0,39.5,32.7,16.0,13.3,8.5,42,34,24,30.26,30.05,9,1,9,0.00
2013-3-8,55.0,41.7,31.1,14.2,9.5,4.1,45,28,15,30.29,30.08,10,2,10,0.00
2013-3-9,62.6,45.9,32.7,15.5,10.4,3.5,41,25,13,30.35,30.14,6,0,6,0.00
2013-3-10,68.0,50.7,35.4,21.0,12.8,6.8,41,24,12,30.29,30.11,5,1,6,0.00
2013-3-11,64.8,53.8,41.9,40.1,22.3,3.2,53,30,16,30.17,29.84,9,2,9,0.00
2013-3-12,63.5,55.1,42.3,52.6,33.6,14.3,83,49,17,29.96,29.70,9,2,9,0.83
2013-3-13,53.8,40.8,32.9,18.5,12.3,1.6,51,32,18,30.14,29.90,11,2,11,0.00
2013-3-14,52.0,38.5,28.6,6.9,2.4,-3.7,34,23,13,30.23,30.05,10,2,10,0.00
2013-3-15,62.8,46.5,30.6,17.3,8.8,-1.7,32,22,13,30.17,29.81,9,1,9,0.00
2013-3-16,79.0,58.4,42.3,39.1,26.1,16.2,46,31,12,29.84,29.55,9,2,9,0.00
2013-3-17,57.9,44.8,36.1,46.7,34.9,28.8,86,70,42,30.20,29.78,8,3,8,0.08
2013-3-18,37.6,35.6,33.8,32.9,31.1,29.0,89,84,75,30.20,29.90,6,2,6,0.24
2013-3-19,63.9,46.3,34.3,42.7,19.4,-1.6,92,48,12,30.02,29.75,13,2,13,0.00
2013-3-20,59.4,45.6,33.6,6.8,0.1,-6.4,20,15,12,30.08,29.75,10,2,10,0.00
2013-3-21,45.7,35.5,27.5,11.2,0.7,-6.6,32,23,15,29.99,29.75,10,3,10,0.00
2013-3-22,53.1,35.5,21.4,4.0,-0.8,-4.4,34,22,13,30.11,29.84,10,1,10,0.00
2013-3-23,58.6,44.7,34.9,17.8,7.2,-2.6,39,22,15,30.05,29.87,5,0,5,0.00
2013-3-24,40.6,35.1,32.2,29.2,23.3,15.4,87,65,39,29.93,29.61,8,3,8,0.43
2013-3-25,46.6,36.9,31.8,33.6,21.1,10.7,87,58,27,29.78,29.52,17,2,17,0.28
2013-3-26,50.0,38.9,31.8,16.5,13.4,11.4,44,35,24,30.14,29.78,11,2,11,0.00
2013-3-27,50.7,39.0,30.4,14.2,10.5,3.8,46,32,16,30.23,30.08,12,2,12,0.00
2013-3-28,57.0,42.2,30.7,14.1,9.4,2.5,46,28,15,30.26,30.08,11,1,11,0.00
2013-3-29,64.4,46.4,32.2,15.5,9.4,3.5,40,24,13,30.32,30.05,8,0,8,0.00
2013-3-30,68.2,51.6,38.1,17.2,11.8,5.6,39,22,12,30.23,29.99,8,0,8,0.00
2013-3-31,63.5,53.5,46.2,47.5,34.6,15.6,74,51,26,30.05,29.75,9,0,9,0.20